Time;durP1;ratioP1;P1;durP2;ratioP2;P2;SDS_P1;SDS_P2;PMS_P1;PMS_P2;Temp;Humidity;BMP_temperature;BMP_pressure;BME280_temperature;BME280_humidity;BME280_pressure;Samples;Min_cycle;Max_cycle;Signal;HPM_P1;HPM_P2
2023/02/26 00:00:35;;;;;;;;;;;;;;;;;;5046272;28;19940;-85
2023/02/26 00:03:00;;;;;;;;;;;;;;;;;;5050485;28;20023;-85
2023/02/26 00:05:26;;;;;;;;;;;;;;;;;;5050859;28;19982;-85
2023/02/26 00:07:52;;;;;;;;;;;;;;;;;;5048838;28;19981;-84
2023/02/26 00:10:17;;;;;;;;;;;;;;;;;;5047911;28;19909;-85
2023/02/26 00:12:42;;;;;;;;;;;;;;;;;;5053115;28;19935;-85
2023/02/26 00:15:07;;;;;;;;;;;;;;;;;;5050450;28;19925;-86
2023/02/26 00:17:32;;;;;;;;;;;;;;;;;;5053626;28;19936;-86
2023/02/26 00:19:58;;;;;;;;;;;;;;;;;;5046945;28;19929;-85
2023/02/26 00:22:23;;;;;;;;;;;;;;;;;;5051090;28;19913;-85
2023/02/26 00:24:48;;;;;;;;;;;;;;;;;;5052302;28;19916;-85
2023/02/26 00:27:13;;;;;;;;;;;;;;;;;;5048216;28;19917;-84
2023/02/26 00:29:38;;;;;;;;;;;;;;;;;;5047213;28;19913;-85
2023/02/26 00:32:03;;;;;;;;;;;;;;;;;;5045837;28;19917;-85
2023/02/26 00:34:29;;;;;;;;;;;;;;;;;;5050452;28;19948;-85
2023/02/26 00:36:54;;;;;;;;;;;;;;;;;;5045858;28;19931;-86
2023/02/26 00:39:19;;;;;;;;;;;;;;;;;;5048347;28;19909;-85
2023/02/26 00:41:44;;;;;;;;;;;;;;;;;;5047746;28;20160;-85
2023/02/26 00:44:09;;;;;;;;;;;;;;;;;;5046313;28;19913;-85
2023/02/26 00:46:35;;;;;;;;;;;;;;;;;;5053276;28;19913;-86
2023/02/26 00:49:04;;;;;;;;;;;;;;;;;;5046313;28;19947;-85
2023/02/26 00:51:29;;;;;;;;;;;;;;;;;;5050648;28;19939;-86
2023/02/26 00:53:54;;;;;;;;;;;;;;;;;;5046269;28;19913;-85
2023/02/26 00:56:19;;;;;;;;;;;;;;;;;;5050493;28;19913;-85
2023/02/26 00:58:45;;;;;;;;;;;;;;;;;;5052136;28;19901;-86
2023/02/26 01:01:10;;;;;;;;;;;;;;;;;;5050363;28;19936;-85
2023/02/26 01:03:35;;;;;;;;;;;;;;;;;;5045972;28;19973;-85
2023/02/26 01:06:00;;;;;;;;;;;;;;;;;;5043583;28;20237;-85
2023/02/26 01:08:25;;;;;;;;;;;;;;;;;;5051275;28;19961;-86
2023/02/26 01:10:51;;;;;;;;;;;;;;;;;;5045671;28;19931;-85
2023/02/26 01:13:16;;;;;;;;;;;;;;;;;;5051120;28;19923;-86
2023/02/26 01:15:41;;;;;;;;;;;;;;;;;;5044374;28;19976;-85
2023/02/26 01:18:06;;;;;;;;;;;;;;;;;;5047283;28;20607;-85
2023/02/26 01:20:32;;;;;;;;;;;;;;;;;;5049568;28;19933;-85
2023/02/26 01:22:57;;;;;;;;;;;;;;;;;;5025013;28;20184;-85
2023/02/26 01:25:22;;;;;;;;;;;;;;;;;;5049647;28;19913;-84
2023/02/26 01:27:47;;;;;;;;;;;;;;;;;;5045637;28;19930;-85
2023/02/26 01:30:13;;;;;;;;;;;;;;;;;;5046155;28;19913;-85
2023/02/26 01:32:38;;;;;;;;;;;;;;;;;;5047334;28;19945;-86
2023/02/26 01:35:03;;;;;;;;;;;;;;;;;;5051794;28;19920;-85
2023/02/26 01:37:28;;;;;;;;;;;;;;;;;;5045663;28;19917;-86
2023/02/26 01:39:53;;;;;;;;;;;;;;;;;;5043880;28;19920;-85
2023/02/26 01:42:19;;;;;;;;;;;;;;;;;;5049183;28;19976;-84
2023/02/26 01:44:44;;;;;;;;;;;;;;;;;;5048750;28;19917;-85
2023/02/26 01:47:09;;;;;;;;;;;;;;;;;;5044571;28;19907;-85
2023/02/26 01:49:34;;;;;;;;;;;;;;;;;;5038738;28;19909;-85
2023/02/26 01:51:59;;;;;;;;;;;;;;;;;;5029538;28;19901;-86
2023/02/26 01:54:24;;;;;;;;;;;;;;;;;;5048925;28;20315;-85
2023/02/26 01:56:50;;;;;;;;;;;;;;;;;;5046968;28;20014;-85
2023/02/26 01:59:15;;;;;;;;;;;;;;;;;;5041764;28;19913;-86
2023/02/26 02:01:40;;;;;;;;;;;;;;;;;;5042150;28;19948;-85
2023/02/26 02:04:05;;;;;;;;;;;;;;;;;;5050021;28;19921;-85
2023/02/26 02:06:30;;;;;;;;;;;;;;;;;;5051343;28;19913;-86
2023/02/26 02:08:56;;;;;;;;;;;;;;;;;;5049102;28;19913;-86
2023/02/26 02:11:21;;;;;;;;;;;;;;;;;;5034070;28;19913;-85
2023/02/26 02:13:46;;;;;;;;;;;;;;;;;;5047027;28;19913;-85
2023/02/26 02:16:11;;;;;;;;;;;;;;;;;;5046661;28;19917;-85
2023/02/26 02:18:36;;;;;;;;;;;;;;;;;;5046232;28;19917;-86
2023/02/26 02:21:02;;;;;;;;;;;;;;;;;;5044066;28;19928;-86
2023/02/26 02:23:27;;;;;;;;;;;;;;;;;;5029919;28;19917;-86
2023/02/26 02:25:52;;;;;;;;;;;;;;;;;;5046504;28;19922;-86
2023/02/26 02:28:17;;;;;;;;;;;;;;;;;;5043088;28;20955;-86
2023/02/26 02:30:42;;;;;;;;;;;;;;;;;;5046276;28;19913;-85
2023/02/26 02:33:07;;;;;;;;;;;;;;;;;;5048680;28;19928;-86
2023/02/26 02:35:33;;;;;;;;;;;;;;;;;;5051206;28;19928;-86
2023/02/26 02:37:58;;;;;;;;;;;;;;;;;;5046113;28;19917;-85
2023/02/26 02:40:23;;;;;;;;;;;;;;;;;;5046604;28;19921;-85
2023/02/26 02:42:48;;;;;;;;;;;;;;;;;;5047463;28;19921;-86
2023/02/26 02:45:13;;;;;;;;;;;;;;;;;;5049009;28;20031;-84
2023/02/26 02:47:39;;;;;;;;;;;;;;;;;;5043889;28;19925;-85
2023/02/26 02:50:04;;;;;;;;;;;;;;;;;;5046978;28;19917;-84
2023/02/26 02:52:29;;;;;;;;;;;;;;;;;;5047155;28;19912;-84
2023/02/26 02:54:54;;;;;;;;;;;;;;;;;;5044956;28;19947;-84
2023/02/26 02:57:20;;;;;;;;;;;;;;;;;;5048974;28;19901;-85
2023/02/26 02:59:45;;;;;;;;;;;;;;;;;;5046075;28;19917;-85
2023/02/26 03:02:10;;;;;;;;;;;;;;;;;;5051472;28;19907;-84
2023/02/26 03:04:35;;;;;;;;;;;;;;;;;;5048951;28;19941;-85
2023/02/26 03:07:01;;;;;;;;;;;;;;;;;;5044360;28;19936;-84
2023/02/26 03:09:26;;;;;;;;;;;;;;;;;;5046235;28;19917;-84
2023/02/26 03:11:51;;;;;;;;;;;;;;;;;;5042638;28;19925;-84
2023/02/26 03:14:17;;;;;;;;;;;;;;;;;;5048194;28;19948;-84
2023/02/26 03:16:42;;;;;;;;;;;;;;;;;;5046875;28;19901;-84
2023/02/26 03:19:08;;;;;;;;;;;;;;;;;;5051282;28;19932;-85
2023/02/26 03:21:33;;;;;;;;;;;;;;;;;;5049455;28;19928;-84
2023/02/26 03:23:58;;;;;;;;;;;;;;;;;;5050841;28;19913;-84
2023/02/26 03:26:23;;;;;;;;;;;;;;;;;;5053061;28;19929;-87
2023/02/26 03:28:48;;;;;;;;;;;;;;;;;;5049751;28;19952;-84
2023/02/26 03:31:13;;;;;;;;;;;;;;;;;;5044321;28;20064;-84
2023/02/26 03:33:39;;;;;;;;;;;;;;;;;;5042679;28;19945;-85
2023/02/26 03:36:04;;;;;;;;;;;;;;;;;;5046129;28;20363;-84
2023/02/26 03:38:29;;;;;;;;;;;;;;;;;;5041146;28;19952;-86
2023/02/26 03:40:54;;;;;;;;;;;;;;;;;;5044662;28;19948;-85
2023/02/26 03:43:19;;;;;;;;;;;;;;;;;;5046515;28;19959;-85
2023/02/26 03:45:45;;;;;;;;;;;;;;;;;;5045121;28;19914;-85
2023/02/26 03:48:10;;;;;;;;;;;;;;;;;;5052510;28;19948;-84
2023/02/26 03:50:37;;;;;;;;;;;;;;;;;;5017799;28;19928;-84
2023/02/26 03:53:02;;;;;;;;;;;;;;;;;;5046152;28;19944;-84
2023/02/26 03:55:28;;;;;;;;;;;;;;;;;;5047198;28;19925;-84
2023/02/26 03:57:54;;;;;;;;;;;;;;;;;;5045380;28;19917;-85
2023/02/26 04:00:19;;;;;;;;;;;;;;;;;;5042378;28;19920;-86
2023/02/26 04:02:44;;;;;;;;;;;;;;;;;;5042064;28;19913;-85
2023/02/26 04:05:09;;;;;;;;;;;;;;;;;;5042123;28;19913;-85
2023/02/26 04:07:34;;;;;;;;;;;;;;;;;;5047099;28;19924;-84
2023/02/26 04:10:00;;;;;;;;;;;;;;;;;;5042551;28;20526;-85
2023/02/26 04:12:25;;;;;;;;;;;;;;;;;;5041026;28;19924;-84
2023/02/26 04:14:50;;;;;;;;;;;;;;;;;;5041967;28;19925;-85
2023/02/26 04:17:15;;;;;;;;;;;;;;;;;;5047207;28;19913;-85
2023/02/26 04:19:40;;;;;;;;;;;;;;;;;;5044721;28;19932;-87
2023/02/26 04:22:08;;;;;;;;;;;;;;;;;;5043002;28;20027;-85
2023/02/26 04:24:33;;;;;;;;;;;;;;;;;;5041958;28;19917;-85
2023/02/26 04:26:59;;;;;;;;;;;;;;;;;;5040852;28;20307;-85
2023/02/26 04:29:24;;;;;;;;;;;;;;;;;;5040665;28;19921;-86
2023/02/26 04:31:49;;;;;;;;;;;;;;;;;;5051689;28;19917;-86
2023/02/26 04:34:14;;;;;;;;;;;;;;;;;;5048881;28;19920;-85
2023/02/26 04:36:39;;;;;;;;;;;;;;;;;;5043050;28;19913;-86
2023/02/26 04:39:04;;;;;;;;;;;;;;;;;;5048249;28;19912;-84
2023/02/26 04:41:30;;;;;;;;;;;;;;;;;;5046466;28;20576;-84
2023/02/26 04:43:55;;;;;;;;;;;;;;;;;;5033333;28;19971;-85
2023/02/26 04:46:20;;;;;;;;;;;;;;;;;;5048373;28;19913;-85
2023/02/26 04:48:45;;;;;;;;;;;;;;;;;;5038707;28;19920;-85
2023/02/26 04:51:10;;;;;;;;;;;;;;;;;;5047113;28;19959;-85
2023/02/26 04:53:36;;;;;;;;;;;;;;;;;;5048511;28;20279;-84
2023/02/26 04:56:01;;;;;;;;;;;;;;;;;;5048977;28;19924;-85
2023/02/26 04:58:26;;;;;;;;;;;;;;;;;;5041500;28;19961;-84
2023/02/26 05:00:52;;;;;;;;;;;;;;;;;;5042920;28;19909;-86
2023/02/26 05:03:17;;;;;;;;;;;;;;;;;;5046880;28;19940;-86
2023/02/26 05:05:42;;;;;;;;;;;;;;;;;;5039704;28;19919;-85
2023/02/26 05:08:08;;;;;;;;;;;;;;;;;;5044719;28;19921;-85
2023/02/26 05:10:33;;;;;;;;;;;;;;;;;;5037768;28;20385;-84
2023/02/26 05:12:58;;;;;;;;;;;;;;;;;;5025668;28;19932;-85
2023/02/26 05:15:23;;;;;;;;;;;;;;;;;;5044423;28;19913;-85
2023/02/26 05:17:49;;;;;;;;;;;;;;;;;;5046487;28;19967;-84
2023/02/26 05:20:14;;;;;;;;;;;;;;;;;;5049031;28;19917;-84
2023/02/26 05:22:39;;;;;;;;;;;;;;;;;;5048626;28;19921;-85
2023/02/26 05:25:05;;;;;;;;;;;;;;;;;;5051110;28;19972;-84
2023/02/26 05:27:30;;;;;;;;;;;;;;;;;;5049599;28;19916;-84
2023/02/26 05:29:55;;;;;;;;;;;;;;;;;;5048232;28;19913;-85
2023/02/26 05:32:20;;;;;;;;;;;;;;;;;;5047669;28;19921;-84
2023/02/26 05:34:45;;;;;;;;;;;;;;;;;;5049685;28;19917;-84
2023/02/26 05:37:11;;;;;;;;;;;;;;;;;;5046169;28;19972;-84
2023/02/26 05:39:36;;;;;;;;;;;;;;;;;;5050788;28;19909;-85
2023/02/26 05:42:01;;;;;;;;;;;;;;;;;;5047448;28;19925;-86
2023/02/26 05:44:26;;;;;;;;;;;;;;;;;;5046175;28;19972;-84
2023/02/26 05:46:51;;;;;;;;;;;;;;;;;;5048410;28;19917;-84
2023/02/26 05:49:16;;;;;;;;;;;;;;;;;;5051136;28;19928;-86
2023/02/26 05:51:42;;;;;;;;;;;;;;;;;;5044996;28;20045;-86
2023/02/26 05:54:07;;;;;;;;;;;;;;;;;;5045549;28;19913;-84
2023/02/26 05:56:32;;;;;;;;;;;;;;;;;;5025050;28;19956;-86
2023/02/26 05:58:57;;;;;;;;;;;;;;;;;;5048658;28;20002;-86
2023/02/26 06:01:22;;;;;;;;;;;;;;;;;;5045521;28;20067;-86
2023/02/26 06:03:48;;;;;;;;;;;;;;;;;;5050269;28;19923;-85
2023/02/26 06:06:15;;;;;;;;;;;;;;;;;;5044001;28;19901;-84
2023/02/26 06:08:40;;;;;;;;;;;;;;;;;;5052097;28;19909;-84
2023/02/26 06:11:05;;;;;;;;;;;;;;;;;;5049362;28;19916;-84
2023/02/26 06:13:30;;;;;;;;;;;;;;;;;;5049353;28;19940;-84
2023/02/26 06:15:55;;;;;;;;;;;;;;;;;;5044916;28;20108;-84
2023/02/26 06:18:20;;;;;;;;;;;;;;;;;;5047019;28;19927;-83
2023/02/26 06:20:46;;;;;;;;;;;;;;;;;;5047137;28;19924;-84
2023/02/26 06:23:11;;;;;;;;;;;;;;;;;;5047913;28;19920;-85
2023/02/26 06:25:36;;;;;;;;;;;;;;;;;;5039863;28;19967;-85
2023/02/26 06:28:01;;;;;;;;;;;;;;;;;;5042316;28;19995;-85
2023/02/26 06:30:26;;;;;;;;;;;;;;;;;;5024986;28;19917;-85
2023/02/26 06:32:52;;;;;;;;;;;;;;;;;;5045517;28;20422;-85
2023/02/26 06:35:17;;;;;;;;;;;;;;;;;;5046445;28;19917;-85
2023/02/26 06:37:42;;;;;;;;;;;;;;;;;;5047772;28;19920;-84
2023/02/26 06:40:09;;;;;;;;;;;;;;;;;;5042277;28;20458;-85
2023/02/26 06:42:34;;;;;;;;;;;;;;;;;;5046068;28;20009;-84
2023/02/26 06:44:59;;;;;;;;;;;;;;;;;;5047890;28;20035;-84
2023/02/26 06:47:25;;;;;;;;;;;;;;;;;;5052548;28;19913;-84
2023/02/26 06:49:50;;;;;;;;;;;;;;;;;;5040639;28;19916;-85
2023/02/26 06:52:15;;;;;;;;;;;;;;;;;;5050880;28;19959;-85
2023/02/26 06:54:40;;;;;;;;;;;;;;;;;;5050364;28;20031;-84
2023/02/26 06:57:05;;;;;;;;;;;;;;;;;;5051924;28;19985;-84
2023/02/26 06:59:30;;;;;;;;;;;;;;;;;;5052208;28;19901;-85
2023/02/26 07:01:56;;;;;;;;;;;;;;;;;;5042895;28;20009;-84
2023/02/26 07:04:21;;;;;;;;;;;;;;;;;;5049579;28;19998;-84
2023/02/26 07:06:46;;;;;;;;;;;;;;;;;;5047463;28;19920;-84
2023/02/26 07:09:12;;;;;;;;;;;;;;;;;;5050684;28;19975;-84
2023/02/26 07:11:37;;;;;;;;;;;;;;;;;;5025033;28;19936;-84
2023/02/26 07:14:02;;;;;;;;;;;;;;;;;;5048062;28;19917;-84
2023/02/26 07:16:27;;;;;;;;;;;;;;;;;;5047596;28;19941;-84
2023/02/26 07:18:52;;;;;;;;;;;;;;;;;;5050853;28;19947;-84
2023/02/26 07:21:17;;;;;;;;;;;;;;;;;;5049427;28;20012;-84
2023/02/26 07:23:43;;;;;;;;;;;;;;;;;;5051756;28;19991;-84
2023/02/26 07:26:08;;;;;;;;;;;;;;;;;;5058528;28;19921;-84
2023/02/26 07:28:33;;;;;;;;;;;;;;;;;;5054384;28;19905;-84
2023/02/26 07:30:58;;;;;;;;;;;;;;;;;;5050692;28;19919;-84
2023/02/26 07:33:23;;;;;;;;;;;;;;;;;;5053804;28;19924;-86
2023/02/26 07:35:49;;;;;;;;;;;;;;;;;;5051119;28;19974;-85
2023/02/26 07:38:14;;;;;;;;;;;;;;;;;;5048488;28;20359;-85
2023/02/26 07:40:39;;;;;;;;;;;;;;;;;;5047378;28;19924;-86
2023/02/26 07:43:07;;;;;;;;;;;;;;;;;;5047301;28;19928;-86
2023/02/26 07:45:32;;;;;;;;;;;;;;;;;;5045459;28;19945;-86
2023/02/26 07:47:57;;;;;;;;;;;;;;;;;;5048950;28;19924;-85
2023/02/26 07:50:24;;;;;;;;;;;;;;;;;;5050389;28;19913;-85
2023/02/26 07:52:49;;;;;;;;;;;;;;;;;;5054698;28;19928;-85
2023/02/26 07:55:14;;;;;;;;;;;;;;;;;;5049943;28;19917;-86
2023/02/26 07:57:39;;;;;;;;;;;;;;;;;;5052585;28;20085;-85
2023/02/26 08:00:04;;;;;;;;;;;;;;;;;;5049348;28;19925;-84
2023/02/26 08:02:30;;;;;;;;;;;;;;;;;;5054952;28;19913;-85
2023/02/26 08:04:55;;;;;;;;;;;;;;;;;;5051483;28;19916;-84
2023/02/26 08:07:20;;;;;;;;;;;;;;;;;;5051563;28;19905;-86
2023/02/26 08:09:46;;;;;;;;;;;;;;;;;;5050744;28;19928;-86
2023/02/26 08:12:11;;;;;;;;;;;;;;;;;;5049966;28;19901;-85
2023/02/26 08:14:36;;;;;;;;;;;;;;;;;;5048542;28;19905;-86
2023/02/26 08:17:01;;;;;;;;;;;;;;;;;;5051991;28;20121;-85
2023/02/26 08:19:27;;;;;;;;;;;;;;;;;;5046503;28;19932;-85
2023/02/26 08:21:54;;;;;;;;;;;;;;;;;;5051332;28;19935;-85
2023/02/26 08:24:19;;;;;;;;;;;;;;;;;;5032395;28;19918;-84
2023/02/26 08:26:45;;;;;;;;;;;;;;;;;;5055830;28;19944;-84
2023/02/26 08:29:10;;;;;;;;;;;;;;;;;;5050154;28;20405;-84
2023/02/26 08:31:35;;;;;;;;;;;;;;;;;;5046710;28;19924;-85
2023/02/26 08:34:01;;;;;;;;;;;;;;;;;;5049087;28;19936;-86
2023/02/26 08:36:26;;;;;;;;;;;;;;;;;;5048374;28;19928;-85
2023/02/26 08:38:51;;;;;;;;;;;;;;;;;;5044991;28;19924;-86
2023/02/26 08:41:16;;;;;;;;;;;;;;;;;;5046246;28;19919;-85
2023/02/26 08:43:41;;;;;;;;;;;;;;;;;;5057885;28;19973;-85
2023/02/26 08:46:07;;;;;;;;;;;;;;;;;;5038024;28;20418;-84
2023/02/26 08:48:32;;;;;;;;;;;;;;;;;;5055205;28;19913;-85
2023/02/26 08:50:57;;;;;;;;;;;;;;;;;;5045635;28;19909;-84
2023/02/26 08:53:22;;;;;;;;;;;;;;;;;;5035447;28;19917;-84
2023/02/26 08:55:48;;;;;;;;;;;;;;;;;;5051980;28;20169;-84
2023/02/26 08:58:13;;;;;;;;;;;;;;;;;;5060927;28;19916;-83
2023/02/26 09:00:38;;;;;;;;;;;;;;;;;;5056120;28;19988;-84
2023/02/26 09:03:03;;;;;;;;;;;;;;;;;;5052114;28;19925;-84
2023/02/26 09:05:28;;;;;;;;;;;;;;;;;;5054965;28;19928;-84
2023/02/26 09:07:53;;;;;;;;;;;;;;;;;;5033905;28;19976;-83
2023/02/26 09:10:19;;;;;;;;;;;;;;;;;;5054656;28;19935;-83
2023/02/26 09:12:44;;;;;;;;;;;;;;;;;;5050687;28;20188;-83
2023/02/26 09:15:16;;;;;;;;;;;;;;;;;;5050162;28;21035;-86
2023/02/26 09:17:42;;;;;;;;;;;;;;;;;;5037683;28;19909;-85
2023/02/26 09:20:08;;;;;;;;;;;;;;;;;;5046885;28;20656;-85
2023/02/26 09:22:33;;;;;;;;;;;;;;;;;;5030472;28;19928;-83
2023/02/26 09:24:58;;;;;;;;;;;;;;;;;;5049044;28;19940;-84
2023/02/26 09:27:24;;;;;;;;;;;;;;;;;;5043173;28;19917;-83
2023/02/26 09:29:49;;;;;;;;;;;;;;;;;;5047193;28;19921;-83
2023/02/26 09:32:14;;;;;;;;;;;;;;;;;;5048354;28;19988;-84
2023/02/26 09:34:39;;;;;;;;;;;;;;;;;;5044207;28;19913;-84
2023/02/26 09:37:04;;;;;;;;;;;;;;;;;;5053134;28;19924;-83
2023/02/26 09:39:29;;;;;;;;;;;;;;;;;;5045852;28;19917;-83
2023/02/26 09:41:55;;;;;;;;;;;;;;;;;;5047509;28;20326;-84
2023/02/26 09:44:20;;;;;;;;;;;;;;;;;;5037723;28;19917;-86
2023/02/26 09:46:45;;;;;;;;;;;;;;;;;;5039370;28;19921;-84
2023/02/26 09:49:11;;;;;;;;;;;;;;;;;;5044691;28;19917;-85
2023/02/26 09:51:36;;;;;;;;;;;;;;;;;;5043036;28;21035;-85
2023/02/26 09:54:02;;;;;;;;;;;;;;;;;;5048560;28;19956;-84
2023/02/26 09:56:29;;;;;;;;;;;;;;;;;;5040612;28;19924;-85
2023/02/26 09:58:54;;;;;;;;;;;;;;;;;;5046576;28;19914;-85
2023/02/26 10:01:19;;;;;;;;;;;;;;;;;;5043157;28;19920;-83
2023/02/26 10:03:47;;;;;;;;;;;;;;;;;;5041472;28;19920;-84
2023/02/26 10:06:15;;;;;;;;;;;;;;;;;;5034630;28;19923;-84
2023/02/26 10:08:40;;;;;;;;;;;;;;;;;;5038965;28;20020;-84
2023/02/26 10:11:05;;;;;;;;;;;;;;;;;;5037063;28;19916;-85
2023/02/26 10:13:30;;;;;;;;;;;;;;;;;;5039012;28;19916;-83
2023/02/26 10:15:55;;;;;;;;;;;;;;;;;;5036060;28;20272;-83
2023/02/26 10:18:21;;;;;;;;;;;;;;;;;;5028245;28;19913;-84
2023/02/26 10:20:46;;;;;;;;;;;;;;;;;;5043090;28;19917;-82
2023/02/26 10:23:11;;;;;;;;;;;;;;;;;;5033362;28;19914;-86
2023/02/26 10:25:36;;;;;;;;;;;;;;;;;;5034694;28;19917;-84
2023/02/26 10:28:03;;;;;;;;;;;;;;;;;;5033373;28;19917;-85
2023/02/26 10:30:28;;;;;;;;;;;;;;;;;;5027275;28;20164;-84
2023/02/26 10:32:53;;;;;;;;;;;;;;;;;;5034342;28;19913;-84
2023/02/26 10:35:20;;;;;;;;;;;;;;;;;;5033053;28;19932;-85
2023/02/26 10:37:45;;;;;;;;;;;;;;;;;;5036453;28;19921;-86
2023/02/26 10:40:10;;;;;;;;;;;;;;;;;;5029983;28;19963;-84
2023/02/26 10:42:35;;;;;;;;;;;;;;;;;;5030872;28;19947;-85
2023/02/26 10:45:00;;;;;;;;;;;;;;;;;;5033953;28;19921;-84
2023/02/26 10:47:41;;;;;;;;;;;;;;;;;;;;;
2023/02/26 10:50:07;;;;;;;;;;;;;;;;;;5030198;28;19985;-84
2023/02/26 10:52:33;;;;;;;;;;;;;;;;;;5030303;28;20409;-85
2023/02/26 10:54:58;;;;;;;;;;;;;;;;;;5034793;28;19937;-85
2023/02/26 10:57:23;;;;;;;;;;;;;;;;;;5035455;28;20016;-84
2023/02/26 10:59:49;;;;;;;;;;;;;;;;;;5039165;28;20382;-84
2023/02/26 11:02:15;;;;;;;;;;;;;;;;;;5035987;28;19929;-85
2023/02/26 11:04:40;;;;;;;;;;;;;;;;;;5038369;28;19918;-85
2023/02/26 11:07:05;;;;;;;;;;;;;;;;;;5028867;28;20440;-84
2023/02/26 11:09:31;;;;;;;;;;;;;;;;;;5031504;28;19913;-84
2023/02/26 11:11:57;;;;;;;;;;;;;;;;;;5033535;28;19968;-84
2023/02/26 11:14:22;;;;;;;;;;;;;;;;;;5035971;28;19913;-84
2023/02/26 11:16:47;;;;;;;;;;;;;;;;;;5033423;28;19970;-84
2023/02/26 11:19:12;;;;;;;;;;;;;;;;;;5032771;28;19966;-86
2023/02/26 11:21:38;;;;;;;;;;;;;;;;;;5029261;28;19918;-85
2023/02/26 11:24:03;;;;;;;;;;;;;;;;;;5027744;28;19917;-86
2023/02/26 11:26:28;;;;;;;;;;;;;;;;;;5029993;28;19984;-87
2023/02/26 11:28:56;;;;;;;;;;;;;;;;;;5034844;28;20352;-86
2023/02/26 11:31:21;;;;;;;;;;;;;;;;;;5029331;28;20438;-85
2023/02/26 11:33:50;;;;;;;;;;;;;;;;;;5029126;28;19965;-86
2023/02/26 11:36:15;;;;;;;;;;;;;;;;;;5028883;28;19940;-85
2023/02/26 11:38:44;;;;;;;;;;;;;;;;;;5032421;28;19921;-85
2023/02/26 11:41:10;;;;;;;;;;;;;;;;;;5034180;28;19924;-86
2023/02/26 11:43:35;;;;;;;;;;;;;;;;;;5035113;28;20362;-85
2023/02/26 11:46:00;;;;;;;;;;;;;;;;;;5043591;28;19940;-87
2023/02/26 11:48:25;;;;;;;;;;;;;;;;;;5028760;28;19967;-85
2023/02/26 11:50:51;;;;;;;;;;;;;;;;;;5026012;28;19917;-86
2023/02/26 11:53:16;;;;;;;;;;;;;;;;;;5033741;28;20414;-85
2023/02/26 11:55:46;;;;;;;;;;;;;;;;;;5034754;28;19917;-87
2023/02/26 11:58:12;;;;;;;;;;;;;;;;;;5031085;28;19920;-88
2023/02/26 12:00:37;;;;;;;;;;;;;;;;;;5031846;28;20296;-87
2023/02/26 12:03:03;;;;;;;;;;;;;;;;;;5033010;28;19999;-87
2023/02/26 12:05:28;;;;;;;;;;;;;;;;;;5035142;28;20366;-87
2023/02/26 12:07:54;;;;;;;;;;;;;;;;;;5037540;28;20019;-88
2023/02/26 12:10:19;;;;;;;;;;;;;;;;;;5031328;28;19973;-88
2023/02/26 12:12:45;;;;;;;;;;;;;;;;;;5031782;28;19917;-88
2023/02/26 12:15:10;;;;;;;;;;;;;;;;;;5029858;28;19921;-88
2023/02/26 12:17:36;;;;;;;;;;;;;;;;;;5027043;28;20012;-87
2023/02/26 12:20:01;;;;;;;;;;;;;;;;;;5029408;28;19917;-88
2023/02/26 12:22:26;;;;;;;;;;;;;;;;;;5029911;28;20206;-88
2023/02/26 12:24:51;;;;;;;;;;;;;;;;;;5027141;28;19995;-88
2023/02/26 12:27:17;;;;;;;;;;;;;;;;;;5026605;28;19933;-87
2023/02/26 12:29:42;;;;;;;;;;;;;;;;;;5028064;28;19917;-88
2023/02/26 12:32:07;;;;;;;;;;;;;;;;;;5010891;28;20871;-87
2023/02/26 12:34:32;;;;;;;;;;;;;;;;;;5022673;28;19924;-86
2023/02/26 12:36:57;;;;;;;;;;;;;;;;;;5020570;28;20105;-87
2023/02/26 12:39:23;;;;;;;;;;;;;;;;;;5020008;28;19913;-88
2023/02/26 12:41:48;;;;;;;;;;;;;;;;;;5032030;28;20586;-87
2023/02/26 12:44:13;;;;;;;;;;;;;;;;;;5026559;28;19924;-86
2023/02/26 12:46:38;;;;;;;;;;;;;;;;;;5023432;28;19917;-90
2023/02/26 12:49:03;;;;;;;;;;;;;;;;;;5023841;28;19921;-87
2023/02/26 12:51:31;;;;;;;;;;;;;;;;;;5024493;28;19917;-86
2023/02/26 12:53:56;;;;;;;;;;;;;;;;;;5023309;28;19960;-87
2023/02/26 12:56:21;;;;;;;;;;;;;;;;;;5003117;28;19921;-87
2023/02/26 12:58:46;;;;;;;;;;;;;;;;;;5020463;28;20554;-88
2023/02/26 13:01:11;;;;;;;;;;;;;;;;;;5023224;28;20170;-87
2023/02/26 13:03:37;;;;;;;;;;;;;;;;;;5026236;28;19913;-87
2023/02/26 13:06:02;;;;;;;;;;;;;;;;;;5028288;28;20294;-87
2023/02/26 13:08:32;;;;;;;;;;;;;;;;;;4992117;28;20385;-87
2023/02/26 13:10:57;;;;;;;;;;;;;;;;;;5020198;28;20687;-87
2023/02/26 13:13:22;;;;;;;;;;;;;;;;;;5023943;28;19924;-87
2023/02/26 13:15:48;;;;;;;;;;;;;;;;;;5026992;28;19921;-89
2023/02/26 13:18:13;;;;;;;;;;;;;;;;;;5024266;28;20359;-88
2023/02/26 13:20:38;;;;;;;;;;;;;;;;;;5020849;28;19917;-88
2023/02/26 13:23:06;;;;;;;;;;;;;;;;;;5019743;28;19917;-87
2023/02/26 13:25:31;;;;;;;;;;;;;;;;;;5024175;28;19975;-89
2023/02/26 13:27:56;;;;;;;;;;;;;;;;;;5023663;28;19956;-89
2023/02/26 13:30:22;;;;;;;;;;;;;;;;;;5016430;28;19959;-89
2023/02/26 13:32:47;;;;;;;;;;;;;;;;;;5005124;28;19917;-88
2023/02/26 13:35:12;;;;;;;;;;;;;;;;;;5019476;28;19925;-88
2023/02/26 13:37:37;;;;;;;;;;;;;;;;;;5026510;28;20267;-87
2023/02/26 13:40:05;;;;;;;;;;;;;;;;;;5023351;28;19940;-90
2023/02/26 13:42:30;;;;;;;;;;;;;;;;;;5021765;28;20058;-87
2023/02/26 13:44:56;;;;;;;;;;;;;;;;;;5027775;28;19928;-88
2023/02/26 13:47:21;;;;;;;;;;;;;;;;;;5024132;28;20416;-87
2023/02/26 13:49:49;;;;;;;;;;;;;;;;;;5021281;28;19917;-90
2023/02/26 13:52:14;;;;;;;;;;;;;;;;;;5016469;28;19924;-88
2023/02/26 13:54:39;;;;;;;;;;;;;;;;;;5024477;28;19920;-88
2023/02/26 13:57:05;;;;;;;;;;;;;;;;;;5021592;28;19921;-88
2023/02/26 13:59:30;;;;;;;;;;;;;;;;;;5018613;28;19957;-88
2023/02/26 14:01:55;;;;;;;;;;;;;;;;;;5022747;28;19913;-88
2023/02/26 14:04:21;;;;;;;;;;;;;;;;;;5018674;28;19917;-87
2023/02/26 14:06:47;;;;;;;;;;;;;;;;;;5021766;28;19913;-88
2023/02/26 14:09:12;;;;;;;;;;;;;;;;;;5033061;28;19914;-88
2023/02/26 14:11:38;;;;;;;;;;;;;;;;;;5028888;28;19921;-88
2023/02/26 14:14:03;;;;;;;;;;;;;;;;;;4997496;28;20307;-88
2023/02/26 14:16:28;;;;;;;;;;;;;;;;;;5021158;28;20375;-87
2023/02/26 14:18:53;;;;;;;;;;;;;;;;;;5025370;28;20195;-88
2023/02/26 14:21:19;;;;;;;;;;;;;;;;;;5023428;28;19984;-87
2023/02/26 14:26:35;;;;;;;;;;;;;;;;;;5032703;28;20274;-87
2023/02/26 14:29:00;;;;;;;;;;;;;;;;;;5024650;28;19929;-88
2023/02/26 14:31:26;;;;;;;;;;;;;;;;;;5023275;28;19920;-87
2023/02/26 14:33:51;;;;;;;;;;;;;;;;;;5018062;28;20406;-88
2023/02/26 14:36:16;;;;;;;;;;;;;;;;;;5025192;28;19928;-88
2023/02/26 14:38:43;;;;;;;;;;;;;;;;;;5024295;28;20391;-87
2023/02/26 14:41:08;;;;;;;;;;;;;;;;;;5019987;28;19940;-87
2023/02/26 14:43:34;;;;;;;;;;;;;;;;;;5008692;28;20395;-87
2023/02/26 14:46:02;;;;;;;;;;;;;;;;;;5028204;28;19928;-88
2023/02/26 14:48:29;;;;;;;;;;;;;;;;;;5027676;28;20024;-88
2023/02/26 14:50:54;;;;;;;;;;;;;;;;;;5022719;28;20010;-87
2023/02/26 14:53:19;;;;;;;;;;;;;;;;;;5023661;28;19963;-90
2023/02/26 14:55:44;;;;;;;;;;;;;;;;;;5026147;28;20285;-89
2023/02/26 14:58:10;;;;;;;;;;;;;;;;;;5020261;28;20130;-88
2023/02/26 15:00:35;;;;;;;;;;;;;;;;;;5030487;28;20061;-88
2023/02/26 15:03:00;;;;;;;;;;;;;;;;;;5016501;28;19924;-88
2023/02/26 15:05:26;;;;;;;;;;;;;;;;;;5023448;28;19921;-87
2023/02/26 15:07:51;;;;;;;;;;;;;;;;;;5029346;28;20282;-87
2023/02/26 15:10:17;;;;;;;;;;;;;;;;;;5020063;28;20362;-88
2023/02/26 15:12:43;;;;;;;;;;;;;;;;;;5022209;28;20179;-87
2023/02/26 15:15:08;;;;;;;;;;;;;;;;;;5020089;28;20272;-87
2023/02/26 15:17:34;;;;;;;;;;;;;;;;;;5026516;28;20383;-89
2023/02/26 15:19:59;;;;;;;;;;;;;;;;;;5027479;28;19920;-88
2023/02/26 15:22:24;;;;;;;;;;;;;;;;;;5021702;28;20093;-88
2023/02/26 15:24:49;;;;;;;;;;;;;;;;;;5029164;28;19913;-87
2023/02/26 15:27:15;;;;;;;;;;;;;;;;;;5024109;28;19917;-86
2023/02/26 15:29:40;;;;;;;;;;;;;;;;;;5024418;28;20023;-88
2023/02/26 15:32:05;;;;;;;;;;;;;;;;;;5025251;28;19921;-87
2023/02/26 15:34:32;;;;;;;;;;;;;;;;;;5021258;28;20338;-87
2023/02/26 15:36:58;;;;;;;;;;;;;;;;;;5027006;28;19917;-87
2023/02/26 15:39:23;;;;;;;;;;;;;;;;;;5029685;28;20421;-86
2023/02/26 15:41:48;;;;;;;;;;;;;;;;;;5026866;28;20374;-88
2023/02/26 15:44:13;;;;;;;;;;;;;;;;;;5009101;28;20489;-87
2023/02/26 15:46:38;;;;;;;;;;;;;;;;;;5026975;28;19925;-87
2023/02/26 15:49:03;;;;;;;;;;;;;;;;;;5026393;28;19924;-87
2023/02/26 15:51:29;;;;;;;;;;;;;;;;;;5022807;28;20398;-87
2023/02/26 15:53:56;;;;;;;;;;;;;;;;;;5025483;28;19917;-87
2023/02/26 15:56:23;;;;;;;;;;;;;;;;;;5022713;28;20043;-87
2023/02/26 15:58:49;;;;;;;;;;;;;;;;;;5022777;28;20045;-88
2023/02/26 16:01:14;;;;;;;;;;;;;;;;;;5026106;28;19913;-87
2023/02/26 16:03:39;;;;;;;;;;;;;;;;;;5027113;28;19917;-87
2023/02/26 16:06:07;;;;;;;;;;;;;;;;;;5024723;28;20892;-86
2023/02/26 16:08:32;;;;;;;;;;;;;;;;;;5024702;28;20004;-87
2023/02/26 16:10:57;;;;;;;;;;;;;;;;;;5023289;28;20405;-88
2023/02/26 16:13:22;;;;;;;;;;;;;;;;;;5023082;28;19917;-88
2023/02/26 16:15:48;;;;;;;;;;;;;;;;;;5021505;28;19921;-88
2023/02/26 16:18:13;;;;;;;;;;;;;;;;;;5025326;28;19924;-87
2023/02/26 16:20:38;;;;;;;;;;;;;;;;;;5027067;28;20302;-86
2023/02/26 16:23:03;;;;;;;;;;;;;;;;;;5022122;28;19939;-87
2023/02/26 16:25:28;;;;;;;;;;;;;;;;;;5029511;28;19921;-88
2023/02/26 16:27:53;;;;;;;;;;;;;;;;;;5023416;28;19967;-86
2023/02/26 16:30:21;;;;;;;;;;;;;;;;;;5024270;28;19979;-88
2023/02/26 16:32:46;;;;;;;;;;;;;;;;;;5024888;28;19918;-87
2023/02/26 16:35:12;;;;;;;;;;;;;;;;;;5024285;28;20015;-87